Time;durP1;ratioP1;P1;durP2;ratioP2;P2;SDS_P1;SDS_P2;PMS_P1;PMS_P2;Temp;Humidity;BMP_temperature;BMP_pressure;BME280_temperature;BME280_humidity;BME280_pressure;Samples;Min_cycle;Max_cycle;Signal;HPM_P1;HPM_P2
2022/08/17 00:04:12;;;;;;;2.30;1.98;;;;;;;22.51;60.53;99442.19;10499581;28;20039;-70
2022/08/17 00:09:17;;;;;;;4.60;1.80;;;;;;;22.47;58.92;99442.63;10481826;28;20158;-69
2022/08/17 00:14:20;;;;;;;3.50;1.95;;;;;;;22.34;58.97;99443.72;10499158;28;20582;-69
2022/08/17 00:19:23;;;;;;;1.85;1.75;;;;;;;21.92;61.13;99441.19;10499040;28;20055;-69
2022/08/17 00:24:27;;;;;;;1.90;1.73;;;;;;;21.85;61.66;99452.56;10498347;28;20041;-69
2022/08/17 00:29:28;;;;;;;3.35;1.88;;;;;;;21.88;62.08;99454.97;10499328;28;20075;-69
2022/08/17 00:34:30;;;;;;;2.63;1.85;;;;;;;21.89;61.95;99449.47;10498911;28;20052;-70
2022/08/17 00:39:33;;;;;;;5.47;2.17;;;;;;;21.80;61.62;99452.97;10505006;28;20041;-69
2022/08/17 00:44:35;;;;;;;3.28;1.73;;;;;;;21.82;61.90;99452.81;10506311;28;20098;-69
2022/08/17 00:49:36;;;;;;;2.38;1.65;;;;;;;21.44;63.48;99456.16;10506869;28;20508;-69
2022/08/17 00:54:40;;;;;;;2.33;2.13;;;;;;;21.40;63.57;99450.22;10505836;28;20063;-70
2022/08/17 00:59:49;;;;;;;2.42;2.22;;;;;;;21.33;64.59;99449.91;10504890;28;20143;-70
2022/08/17 01:05:05;;;;;;;2.08;1.90;;;;;;;21.35;64.74;99452.47;10505756;28;20485;-70
2022/08/17 01:10:10;;;;;;;2.10;1.90;;;;;;;21.28;65.31;99453.91;10504979;28;20098;-70
2022/08/17 01:15:36;;;;;;;2.03;1.80;;;;;;;21.16;66.12;99453.13;10505696;28;20044;-69
2022/08/17 01:20:45;;;;;;;2.25;2.10;;;;;;;21.18;66.12;99461.88;10506173;28;20037;-69
2022/08/17 01:25:51;;;;;;;2.22;2.03;;;;;;;21.15;65.74;99457.63;10506156;28;20101;-72
2022/08/17 01:30:54;;;;;;;2.75;2.25;;;;;;;21.19;66.25;99463.56;10503150;28;20052;-74
2022/08/17 01:35:59;;;;;;;3.22;1.98;;;;;;;21.01;68.11;99465.97;10485161;28;20044;-72
2022/08/17 01:41:12;;;;;;;4.25;2.60;;;;;;;20.98;66.64;99458.19;10504176;28;20409;-73
2022/08/17 01:46:23;;;;;;;2.80;1.98;;;;;;;20.90;65.96;99464.22;10504294;28;20052;-72
2022/08/17 01:51:31;;;;;;;2.85;2.40;;;;;;;21.02;64.49;99467.66;10502813;28;20500;-72
2022/08/17 01:56:37;;;;;;;2.80;2.42;;;;;;;20.73;65.00;99467.44;10502556;28;20059;-72
2022/08/17 02:01:39;;;;;;;2.45;2.10;;;;;;;20.44;66.92;99468.94;10503966;28;20043;-72
2022/08/17 02:06:42;;;;;;;3.78;2.20;;;;;;;20.50;66.98;99477.34;10505019;28;20052;-72
2022/08/17 02:11:57;;;;;;;7.95;2.80;;;;;;;20.45;66.92;99478.63;10505520;28;20459;-72
2022/08/17 02:16:59;;;;;;;2.92;2.58;;;;;;;20.30;67.58;99473.56;10486310;28;20059;-72
2022/08/17 02:22:00;;;;;;;3.13;2.60;;;;;;;20.24;68.24;99474.09;10501781;28;20075;-72
2022/08/17 02:27:03;;;;;;;2.40;2.30;;;;;;;20.06;69.52;99471.06;10483367;28;20078;-72
2022/08/17 02:32:05;;;;;;;3.55;2.72;;;;;;;20.09;70.19;99478.81;10502024;28;20048;-71
2022/08/17 02:37:07;;;;;;;3.50;3.20;;;;;;;20.19;68.65;99478.94;10501822;28;20051;-72
2022/08/17 02:42:09;;;;;;;3.50;3.22;;;;;;;19.78;70.65;99476.88;10501873;28;20040;-72
2022/08/17 02:47:13;;;;;;;3.13;2.90;;;;;;;19.77;70.37;99480.53;10503845;28;20447;-72
2022/08/17 02:52:15;;;;;;;4.03;3.67;;;;;;;20.09;69.36;99472.63;10503522;28;20043;-74
2022/08/17 02:57:36;;;;;;;4.70;3.13;;;;;;;19.86;69.81;99479.81;10502668;28;20041;-72
2022/08/17 03:02:40;;;;;;;3.20;2.80;;;;;;;19.76;71.08;99470.84;10500464;28;20045;-72
2022/08/17 03:07:42;;;;;;;3.58;3.22;;;;;;;19.53;71.83;99469.94;10499727;28;20573;-72
2022/08/17 03:12:44;;;;;;;3.65;3.35;;;;;;;19.49;72.04;99471.16;10482156;28;20086;-72
2022/08/17 03:17:46;;;;;;;4.40;3.30;;;;;;;19.30;72.69;99459.25;10502017;28;20040;-72
2022/08/17 03:23:08;;;;;;;3.30;3.10;;;;;;;19.29;72.71;99462.84;10502531;28;20041;-72
2022/08/17 03:28:10;;;;;;;3.70;3.40;;;;;;;19.29;73.02;99451.34;10375088;28;20061;-73
2022/08/17 03:33:12;;;;;;;5.65;3.03;;;;;;;19.32;72.87;99451.97;10374067;28;20069;-73
2022/08/17 03:38:15;;;;;;;4.00;3.47;;;;;;;19.33;73.13;99455.47;10371783;28;20133;-73
2022/08/17 03:43:20;;;;;;;4.50;3.63;;;;;;;19.14;74.47;99462.22;10371487;28;20050;-73
2022/08/17 03:59:21;;;;;;;5.00;4.25;;;;;;;19.19;74.18;99447.69;10472603;28;20053;-74
2022/08/17 04:04:23;;;;;;;4.65;4.20;;;;;;;19.15;74.79;99453.25;10498137;28;20055;-72
2022/08/17 04:09:28;;;;;;;4.75;4.45;;;;;;;19.10;74.83;99457.25;10499478;28;20120;-72
2022/08/17 04:14:34;;;;;;;4.22;4.00;;;;;;;19.05;74.98;99454.94;10504880;28;20048;-73
2022/08/17 04:19:53;;;;;;;4.25;3.80;;;;;;;18.94;75.40;99457.53;10490489;28;20526;-72
2022/08/17 04:24:55;;;;;;;8.90;4.20;;;;;;;18.95;76.24;99459.28;10506013;28;20041;-72
2022/08/17 04:29:59;;;;;;;5.80;5.10;;;;;;;19.31;74.19;99473.41;10507049;28;20397;-72
2022/08/17 04:35:01;;;;;;;4.68;4.28;;;;;;;19.02;76.59;99473.81;10505110;28;20525;-72
2022/08/17 04:45:27;;;;;;;4.53;4.22;;;;;;;19.11;77.38;99485.56;10505037;28;20051;-72
2022/08/17 04:50:34;;;;;;;4.88;4.43;;;;;;;19.23;76.71;99495.31;10506534;28;20045;-72
2022/08/17 04:55:40;;;;;;;4.60;4.28;;;;;;;19.33;76.27;99496.31;10505388;28;20037;-73
2022/08/17 05:00:42;;;;;;;4.38;4.07;;;;;;;19.45;75.96;99491.84;10505088;28;20551;-74
2022/08/17 05:05:48;;;;;;;4.63;4.05;;;;;;;19.54;75.71;99499.13;10505432;28;20044;-72
2022/08/17 05:10:50;;;;;;;5.32;4.97;;;;;;;19.52;74.97;99494.88;10487039;28;20040;-74
2022/08/17 05:15:55;;;;;;;4.70;4.30;;;;;;;19.74;73.20;99496.75;10486310;28;20052;-73
2022/08/17 05:20:57;;;;;;;7.82;5.15;;;;;;;19.86;72.54;99509.97;10504508;28;20072;-73
2022/08/17 05:25:59;;;;;;;5.82;5.30;;;;;;;19.94;72.13;99501.38;10505192;28;20040;-73
2022/08/17 05:31:02;;;;;;;7.00;6.40;;;;;;;20.11;70.32;99508.06;10503201;28;20548;-73
2022/08/17 05:36:07;;;;;;;8.45;7.65;;;;;;;20.32;68.43;99508.13;10487320;28;20494;-73
2022/08/17 05:41:09;;;;;;;8.40;7.60;;;;;;;20.42;66.38;99506.44;10505213;28;20041;-73
2022/08/17 05:46:22;;;;;;;8.55;7.75;;;;;;;20.64;65.88;99495.75;10506065;28;20053;-74
2022/08/17 05:51:26;;;;;;;7.60;6.78;;;;;;;20.85;64.63;99501.16;10505997;28;20040;-73
2022/08/17 05:57:13;;;;;;;8.13;7.15;;;;;;;20.96;63.16;99508.25;10504754;28;20048;-73
2022/08/17 06:02:26;;;;;;;5.95;5.35;;;;;;;21.35;61.78;99511.28;10464395;28;20063;-74
2022/08/17 06:07:48;;;;;;;4.85;4.40;;;;;;;21.87;59.34;99510.31;10488973;28;20416;-74
2022/08/17 06:13:08;;;;;;;5.68;4.03;;;;;;;22.40;57.56;99506.56;10505017;28;20497;-73
2022/08/17 06:18:10;;;;;;;7.07;4.80;;;;;;;22.70;56.24;99518.22;10505028;28;20512;-73
2022/08/17 06:23:45;;;;;;;9.25;4.63;;;;;;;23.33;54.22;99526.72;10503002;28;20037;-73
2022/08/17 06:28:55;;;;;;;8.80;5.63;;;;;;;23.78;52.13;99515.41;10489800;28;20061;-74
2022/08/17 06:34:01;;;;;;;8.68;4.82;;;;;;;24.45;52.13;99526.88;10502863;28;20047;-74
2022/08/17 06:39:18;;;;;;;10.60;4.70;;;;;;;24.83;49.34;99532.00;10504712;28;20458;-75
2022/08/17 06:44:35;;;;;;;9.20;5.38;;;;;;;25.56;48.71;99534.53;10483780;28;20064;-75
2022/08/17 06:50:18;;;;;;;7.10;5.93;;;;;;;26.11;46.31;99528.00;10502223;28;20052;-74
2022/08/17 06:55:27;;;;;;;6.65;4.80;;;;;;;26.01;47.04;99533.50;10500657;28;20493;-74
2022/08/17 07:00:37;;;;;;;8.60;4.90;;;;;;;25.62;47.61;99528.50;10484301;28;20592;-74
2022/08/17 07:05:43;;;;;;;7.80;4.70;;;;;;;25.90;47.46;99521.19;10503646;28;20045;-74
2022/08/17 07:10:51;;;;;;;5.28;4.45;;;;;;;25.94;46.72;99526.22;10504536;28;20485;-74
2022/08/17 07:15:59;;;;;;;9.25;4.80;;;;;;;25.86;46.81;99525.19;10503643;28;20047;-73
2022/08/17 07:21:12;;;;;;;7.47;4.40;;;;;;;25.77;46.89;99530.69;10505214;28;20520;-74
2022/08/17 07:26:18;;;;;;;4.70;3.63;;;;;;;26.10;45.69;99527.16;10491396;23;20077;-69
2022/08/17 07:31:20;;;;;;;4.97;3.45;;;;;;;26.46;45.17;99531.56;10455946;28;20052;-69
2022/08/17 07:36:24;;;;;;;6.13;3.63;;;;;;;26.53;45.73;99525.34;10483347;28;20068;-69
2022/08/17 07:41:38;;;;;;;5.97;3.53;;;;;;;26.51;45.08;99527.34;10497307;28;20051;-70
2022/08/17 07:52:32;;;;;;;5.93;3.53;;;;;;;26.95;44.54;99526.28;10504065;28;20068;-70
2022/08/17 07:57:57;;;;;;;6.10;2.95;;;;;;;26.85;44.92;99524.59;10505648;28;20043;-71
2022/08/17 08:03:10;;;;;;;7.32;2.78;;;;;;;27.06;44.11;99526.81;10503559;28;20042;-70
2022/08/17 08:08:25;;;;;;;5.10;2.15;;;;;;;27.31;42.11;99516.06;10504360;28;20131;-70
2022/08/17 08:13:29;;;;;;;4.03;2.63;;;;;;;27.43;41.94;99512.00;10504032;28;20036;-69
2022/08/17 08:18:42;;;;;;;2.67;2.05;;;;;;;27.24;40.09;99523.16;10504222;28;20095;-69
2022/08/17 08:24:29;;;;;;;5.97;2.38;;;;;;;27.59;40.82;99520.09;10502988;28;20086;-68
2022/08/17 08:30:09;;;;;;;3.60;2.17;;;;;;;27.85;40.18;99529.91;10485269;28;20049;-69
2022/08/17 08:35:29;;;;;;;3.72;2.45;;;;;;;27.94;39.55;99520.75;10295638;28;20098;-69
2022/08/17 08:40:53;;;;;;;2.67;2.35;;;;;;;28.17;39.64;99524.38;10294730;28;20508;-70
2022/08/17 08:46:13;;;;;;;2.30;2.10;;;;;;;28.26;38.30;99522.50;10294296;28;20508;-69
2022/08/17 08:51:20;;;;;;;;;;;;;;;28.34;39.37;99521.63;10294632;28;20491;-69
2022/08/17 08:56:38;;;;;;;3.30;1.90;;;;;;;28.65;38.33;99517.09;10294179;28;19925;-69
2022/08/17 09:02:28;;;;;;;3.38;2.72;;;;;;;29.06;37.36;99519.56;10280758;28;20062;-70
2022/08/17 09:08:13;;;;;;;3.47;2.28;;;;;;;29.26;36.84;99513.66;10322328;28;20056;-69
2022/08/17 09:13:19;;;;;;;2.17;1.98;;;;;;;29.39;35.40;99513.88;10501845;28;20047;-69
2022/08/17 09:18:39;;;;;;;1.70;1.60;;;;;;;30.01;34.51;99513.63;10501876;28;20041;-69
2022/08/17 09:24:11;;;;;;;2.88;2.00;;;;;;;30.39;33.92;99505.44;10501343;28;20455;-69
2022/08/17 09:29:15;;;;;;;2.15;1.80;;;;;;;30.83;34.07;99507.22;10502327;28;20072;-70
2022/08/17 09:34:30;;;;;;;2.38;1.85;;;;;;;31.04;33.30;99512.66;10501202;28;20405;-69
2022/08/17 09:39:42;;;;;;;2.33;1.42;;;;;;;31.99;31.23;99513.28;10501053;28;20032;-69
2022/08/17 09:45:22;;;;;;;2.70;1.98;;;;;;;32.52;31.40;99489.06;10500648;28;20049;-69
2022/08/17 09:50:36;;;;;;;3.03;1.88;;;;;;;32.47;31.54;99497.84;10500391;28;20554;-69
2022/08/17 09:56:28;;;;;;;2.63;1.87;;;;;;;32.75;30.94;99491.44;10500155;28;20059;-69
2022/08/17 10:01:44;;;;;;;2.58;1.45;;;;;;;33.48;28.93;99492.44;10500267;28;20051;-69
2022/08/17 10:06:57;;;;;;;2.83;1.35;;;;;;;33.79;28.86;99486.31;10501229;28;20075;-69
2022/08/17 10:12:18;;;;;;;2.72;1.60;;;;;;;33.67;29.02;99489.88;10499879;28;20040;-69
2022/08/17 10:17:29;;;;;;;2.70;1.40;;;;;;;34.10;27.82;99485.63;10499711;28;20060;-70
2022/08/17 10:28:22;;;;;;;2.08;1.20;;;;;;;34.47;27.26;99474.19;10499792;28;20119;-70
2022/08/17 10:33:56;;;;;;;1.55;1.23;;;;;;;34.85;25.87;99475.00;10499515;28;20056;-71
2022/08/17 10:39:21;;;;;;;2.70;1.30;;;;;;;34.31;26.84;99470.00;10470058;28;20426;-70
2022/08/17 10:44:29;;;;;;;3.80;1.48;;;;;;;34.52;27.08;99475.19;10500068;28;20060;-71
2022/08/17 10:49:48;;;;;;;3.40;1.55;;;;;;;33.72;27.26;99463.66;10499679;28;20044;-71
2022/08/17 10:54:50;;;;;;;2.55;1.15;;;;;;;34.39;27.74;99456.13;10499069;28;20037;-69
2022/08/17 10:59:54;;;;;;;1.95;1.40;;;;;;;35.64;26.81;99470.03;10480447;28;20048;-68
2022/08/17 11:04:59;;;;;;;3.47;1.20;;;;;;;36.06;25.56;99462.00;10497555;28;20041;-68
2022/08/17 11:10:29;;;;;;;1.40;1.25;;;;;;;35.50;26.12;99457.53;10497539;28;20072;-69
2022/08/17 11:15:44;;;;;;;1.90;1.20;;;;;;;35.00;26.55;99444.69;10497859;28;20048;-69
2022/08/17 11:21:24;;;;;;;2.38;1.30;;;;;;;35.98;25.75;99443.16;10497140;28;20048;-70
2022/08/17 11:26:30;;;;;;;1.52;1.00;;;;;;;36.43;24.41;99443.63;10497632;28;20044;-72
2022/08/17 11:31:37;;;;;;;3.20;1.48;;;;;;;36.04;25.44;99443.09;10498837;28;20059;-72
2022/08/17 11:36:52;;;;;;;1.08;1.02;;;;;;;35.78;25.90;99438.75;10497443;28;20119;-72
2022/08/17 11:42:15;;;;;;;1.90;1.30;;;;;;;36.73;24.19;99440.94;10498479;28;20092;-72
2022/08/17 11:53:35;;;;;;;1.17;1.08;;;;;;;36.24;24.63;99436.53;10497450;28;20044;-72
2022/08/17 11:58:40;;;;;;;3.15;1.30;;;;;;;36.01;25.07;99440.81;10479360;28;20071;-72
2022/08/17 12:03:44;;;;;;;2.85;1.20;;;;;;;35.25;25.47;99424.75;10496921;28;20051;-72
2022/08/17 12:09:08;;;;;;;4.10;1.30;;;;;;;35.69;25.29;99429.16;10496822;28;20044;-72
2022/08/17 12:14:14;;;;;;;1.73;1.20;;;;;;;36.16;24.69;99426.72;10478466;28;20520;-72
2022/08/17 12:19:26;;;;;;;2.10;1.10;;;;;;;36.19;24.53;99409.88;10498040;28;20041;-73
2022/08/17 12:24:56;;;;;;;1.75;1.10;;;;;;;35.88;25.79;99400.75;10478324;28;20040;-73
2022/08/17 12:30:01;;;;;;;3.47;1.08;;;;;;;36.26;25.08;99399.69;10496309;28;20448;-73
2022/08/17 12:35:04;;;;;;;1.33;1.10;;;;;;;36.41;23.66;99402.00;10501472;28;20517;-73
2022/08/17 12:40:18;;;;;;;3.20;1.30;;;;;;;36.01;24.52;99397.06;10503502;28;20049;-73
2022/08/17 12:45:38;;;;;;;3.77;1.30;;;;;;;35.68;25.16;99391.09;10503256;28;20071;-73
2022/08/17 12:50:43;;;;;;;4.75;1.50;;;;;;;34.75;26.48;99398.19;10503570;28;20055;-72
2022/08/17 12:55:46;;;;;;;4.32;1.38;;;;;;;34.02;26.94;99390.41;10484757;28;20040;-72
2022/08/17 13:00:55;;;;;;;2.75;1.13;;;;;;;34.10;27.22;99392.91;10484916;28;20055;-72
2022/08/17 13:06:08;;;;;;;2.55;1.30;;;;;;;33.59;27.23;99381.94;10502589;28;20045;-71
2022/08/17 13:11:12;;;;;;;1.23;1.10;;;;;;;33.48;27.58;99378.00;10502596;28;20041;-68
2022/08/17 13:16:19;;;;;;;1.52;1.10;;;;;;;33.95;26.60;99386.00;10501459;28;20479;-68
2022/08/17 13:21:25;;;;;;;1.85;1.10;;;;;;;34.38;26.28;99384.34;10483599;28;20048;-68
2022/08/17 13:26:39;;;;;;;2.33;1.33;;;;;;;34.18;27.01;99380.06;10480959;23;20045;-69
2022/08/17 13:31:42;;;;;;;2.95;1.50;;;;;;;34.18;26.01;99375.47;10463059;28;20041;-69
2022/08/17 13:37:35;;;;;;;1.85;1.20;;;;;;;33.79;26.60;99385.44;10476670;28;20072;-69
2022/08/17 13:42:52;;;;;;;3.13;1.40;;;;;;;33.27;26.76;99394.53;10502881;28;20100;-69
2022/08/17 13:48:16;;;;;;;1.92;1.27;;;;;;;33.35;27.75;99395.16;10502323;28;20048;-69
2022/08/17 13:53:22;;;;;;;2.80;1.50;;;;;;;33.18;26.70;99391.19;10502506;28;20044;-68
2022/08/17 13:58:36;;;;;;;1.95;0.90;;;;;;;33.13;27.20;99385.56;10502542;28;20087;-69
2022/08/17 14:03:38;;;;;;;1.40;1.27;;;;;;;33.63;27.21;99386.75;10503621;28;20094;-69
2022/08/17 14:08:42;;;;;;;1.38;1.20;;;;;;;33.60;27.47;99386.31;10501660;28;20490;-70
2022/08/17 14:13:45;;;;;;;1.25;0.98;;;;;;;33.51;27.01;99384.88;10501505;28;20045;-70
2022/08/17 14:18:47;;;;;;;2.17;1.40;;;;;;;33.27;27.82;99376.31;10501537;28;20056;-70
2022/08/17 14:23:57;;;;;;;2.40;1.20;;;;;;;33.19;27.17;99386.59;10501616;28;20040;-71
2022/08/17 14:28:59;;;;;;;2.78;1.40;;;;;;;32.90;28.40;99375.91;10500661;28;20417;-70
2022/08/17 14:34:01;;;;;;;2.33;1.23;;;;;;;32.60;29.11;99364.56;10482407;28;20072;-69
2022/08/17 14:39:04;;;;;;;3.60;1.27;;;;;;;32.46;28.23;99353.88;10500386;28;20040;-69
2022/08/17 14:44:09;;;;;;;2.47;1.20;;;;;;;32.39;28.44;99342.97;10496456;28;20590;-69
2022/08/17 14:49:14;;;;;;;2.35;1.30;;;;;;;32.52;28.52;99351.16;10477754;28;20044;-69
2022/08/17 14:54:17;;;;;;;;;;;;;;;32.39;29.37;99362.84;10477900;28;20124;-68
2022/08/17 14:59:34;;;;;;;2.28;1.17;;;;;;;32.48;28.16;99355.34;10480560;28;19928;-69
2022/08/17 15:04:36;;;;;;;2.35;1.25;;;;;;;32.37;28.57;99358.66;10499048;28;20047;-69
2022/08/17 15:09:45;;;;;;;1.70;1.23;;;;;;;32.20;28.69;99360.06;10499658;28;20127;-69
2022/08/17 15:14:48;;;;;;;2.40;1.20;;;;;;;32.15;28.64;99369.69;10481909;28;20048;-69
2022/08/17 15:19:50;;;;;;;3.13;1.70;;;;;;;32.27;28.17;99360.91;10466935;28;20060;-71
2022/08/17 15:24:52;;;;;;;1.85;1.40;;;;;;;32.19;28.98;99361.13;10500192;28;20044;-75
2022/08/17 15:29:54;;;;;;;1.58;1.30;;;;;;;32.27;28.86;99361.75;10500587;28;20127;-72
2022/08/17 15:34:59;;;;;;;2.00;1.10;;;;;;;32.14;29.48;99351.69;10500211;28;20551;-72
2022/08/17 15:40:00;;;;;;;1.55;1.45;;;;;;;32.44;28.21;99351.34;10480982;28;20048;-72
2022/08/17 15:45:09;;;;;;;2.17;1.17;;;;;;;32.50;27.85;99350.53;10499036;28;20068;-73
2022/08/17 15:50:11;;;;;;;3.65;1.30;;;;;;;32.31;28.09;99343.13;10481394;28;20045;-73
2022/08/17 15:55:14;;;;;;;1.50;1.30;;;;;;;32.17;27.26;99341.44;10481500;28;20049;-73
2022/08/17 16:00:16;;;;;;;1.42;1.20;;;;;;;32.17;28.11;99327.84;10500462;28;20123;-75
2022/08/17 16:05:21;;;;;;;1.50;1.20;;;;;;;32.24;28.08;99312.38;10482664;28;20037;-74
2022/08/17 16:10:25;;;;;;;2.25;1.17;;;;;;;32.06;27.89;99316.53;10505216;28;20044;-75
2022/08/17 16:15:36;;;;;;;2.75;1.50;;;;;;;32.02;28.17;99309.81;10506538;28;20041;-75
2022/08/17 16:20:38;;;;;;;2.65;1.17;;;;;;;32.19;28.04;99323.06;10487800;28;20037;-75
2022/08/17 16:25:44;;;;;;;2.35;1.42;;;;;;;31.92;29.25;99317.53;10489217;28;20064;-75
2022/08/17 16:30:54;;;;;;;2.17;1.50;;;;;;;31.56;31.30;99313.16;10505881;28;20094;-72
2022/08/17 16:35:56;;;;;;;2.72;2.17;;;;;;;31.39;30.34;99320.84;10506546;28;20041;-71
2022/08/17 16:40:57;;;;;;;2.85;1.80;;;;;;;31.25;32.34;99329.03;10505371;28;20055;-72
2022/08/17 16:46:00;;;;;;;2.97;1.42;;;;;;;30.95;33.44;99337.44;10487857;28;20047;-72
2022/08/17 16:51:01;;;;;;;2.53;1.40;;;;;;;30.70;34.53;99334.25;10506464;28;20468;-72
2022/08/17 16:56:06;;;;;;;2.35;1.80;;;;;;;30.38;34.59;99322.09;10505227;28;20410;-72
2022/08/17 17:01:07;;;;;;;1.90;1.70;;;;;;;30.34;35.65;99334.34;10506076;28;20054;-72
2022/08/17 17:06:46;;;;;;;2.33;1.95;;;;;;;30.15;36.96;99330.41;10504423;28;20037;-71
2022/08/17 17:11:58;;;;;;;2.60;1.55;;;;;;;29.91;37.29;99336.97;10504595;28;20131;-71
2022/08/17 17:17:10;;;;;;;2.97;2.50;;;;;;;29.88;37.53;99334.63;10503878;28;20116;-71
2022/08/17 17:22:14;;;;;;;4.15;2.33;;;;;;;29.48;38.94;99331.38;10469268;28;20056;-72
2022/08/17 17:27:54;;;;;;;3.53;2.20;;;;;;;29.33;38.80;99341.38;10503282;28;20049;-72
2022/08/17 17:33:03;;;;;;;3.28;2.22;;;;;;;29.23;38.77;99349.78;10502110;28;20117;-71
2022/08/17 17:38:13;;;;;;;2.58;2.10;;;;;;;28.92;39.24;99358.00;10484168;28;20139;-71
2022/08/17 17:43:22;;;;;;;3.47;2.40;;;;;;;28.62;40.48;99355.22;10505443;28;20106;-72
2022/08/17 17:48:41;;;;;;;2.97;2.45;;;;;;;28.37;41.23;99351.00;10502815;28;20539;-72
2022/08/17 17:54:10;;;;;;;10.15;3.20;;;;;;;28.51;40.75;99349.38;10504554;28;20054;-72
2022/08/17 17:59:33;;;;;;;5.38;2.90;;;;;;;28.35;40.48;99359.31;10503062;28;20090;-72
2022/08/17 18:04:47;;;;;;;3.30;2.85;;;;;;;27.89;41.15;99364.63;10483908;28;20043;-71
2022/08/17 18:10:04;;;;;;;2.90;2.45;;;;;;;27.63;42.63;99361.31;10483124;28;20122;-72
2022/08/17 18:15:35;;;;;;;3.08;2.88;;;;;;;27.54;42.74;99368.59;10500846;28;20486;-71
2022/08/17 18:20:37;;;;;;;3.47;2.55;;;;;;;27.53;43.16;99374.16;10501462;28;20123;-72
2022/08/17 18:25:55;;;;;;;3.25;2.40;;;;;;;27.02;44.39;99382.50;10499539;28;20135;-72
2022/08/17 18:31:13;;;;;;;3.85;3.20;;;;;;;26.91;44.13;99374.75;10480469;28;20058;-71
2022/08/17 18:36:30;;;;;;;7.05;3.03;;;;;;;26.95;43.51;99376.09;10500110;28;20043;-71
2022/08/17 18:41:39;;;;;;;8.50;3.60;;;;;;;26.99;42.48;99369.34;10500030;28;20044;-72
2022/08/17 18:46:41;;;;;;;8.43;4.18;;;;;;;26.63;44.15;99369.69;10499762;28;20044;-72
2022/08/17 18:51:43;;;;;;;13.20;4.53;;;;;;;26.37;44.59;99366.28;10499880;28;20091;-72
2022/08/17 18:56:55;;;;;;;4.22;3.80;;;;;;;26.10;45.83;99370.94;10483324;28;20051;-73
2022/08/17 19:02:06;;;;;;;8.52;3.83;;;;;;;26.03;45.10;99360.97;10480518;28;20041;-73
2022/08/17 19:07:23;;;;;;;4.18;3.78;;;;;;;25.94;45.12;99368.19;10499325;28;20041;-72
2022/08/17 19:12:36;;;;;;;7.85;3.50;;;;;;;25.75;45.29;99366.59;10481201;28;20121;-70
2022/08/17 19:17:48;;;;;;;5.57;4.03;;;;;;;25.62;45.91;99356.25;10499430;28;20040;-72
2022/08/17 19:22:56;;;;;;;7.65;3.90;;;;;;;25.85;45.91;99363.78;10499263;28;20111;-72
2022/08/17 19:28:08;;;;;;;6.25;3.25;;;;;;;25.46;46.27;99366.97;10480863;28;20048;-72
2022/08/17 19:33:25;;;;;;;11.80;4.10;;;;;;;25.46;46.26;99375.03;10499166;28;20045;-72
2022/08/17 19:38:52;;;;;;;5.35;3.72;;;;;;;25.35;46.80;99372.63;10499023;28;20052;-71
2022/08/17 19:44:00;;;;;;;8.20;3.90;;;;;;;25.21;46.13;99362.44;10504423;28;20489;-71
2022/08/17 19:49:23;;;;;;;8.38;4.65;;;;;;;24.98;47.54;99362.94;10508709;28;20076;-73
2022/08/17 19:54:46;;;;;;;5.47;3.25;;;;;;;24.90;47.31;99368.25;10492715;28;20104;-71
2022/08/17 19:59:55;;;;;;;7.90;3.75;;;;;;;24.59;48.73;99371.38;10508007;28;20080;-72
2022/08/17 20:05:00;;;;;;;6.30;3.72;;;;;;;24.49;49.53;99367.09;10508590;28;20047;-72
2022/08/17 20:10:10;;;;;;;9.55;4.15;;;;;;;24.58;48.86;99358.94;10507111;28;20040;-71
2022/08/17 20:15:29;;;;;;;9.00;4.07;;;;;;;24.27;50.23;99355.75;10510253;28;20093;-72
2022/08/17 20:20:37;;;;;;;7.25;4.35;;;;;;;24.07;51.30;99365.78;10509030;28;20093;-72
2022/08/17 20:25:56;;;;;;;5.38;4.90;;;;;;;23.93;51.69;99368.97;10507917;28;20044;-72
2022/08/17 20:30:58;;;;;;;12.23;4.78;;;;;;;24.24;51.70;99374.84;10507729;28;20123;-72
2022/08/17 20:36:19;;;;;;;5.57;3.95;;;;;;;23.97;51.07;99362.31;10489798;28;20493;-72
2022/08/17 20:41:23;;;;;;;5.15;4.00;;;;;;;23.83;50.66;99362.81;10507564;28;20049;-72
2022/08/17 20:46:37;;;;;;;3.67;3.38;;;;;;;23.77;50.89;99364.25;10506488;28;20047;-73
2022/08/17 20:51:49;;;;;;;8.38;3.78;;;;;;;23.67;50.55;99369.66;10486019;28;20076;-72
2022/08/17 20:57:01;;;;;;;7.40;2.95;;;;;;;23.62;50.04;99363.88;10504121;28;20048;-72
2022/08/17 21:02:19;;;;;;;5.07;3.38;;;;;;;23.41;51.30;99355.22;10504678;28;20489;-72
2022/08/17 21:07:44;;;;;;;3.83;3.40;;;;;;;23.29;51.73;99370.66;10504848;28;20111;-72
2022/08/17 21:13:00;;;;;;;4.90;3.17;;;;;;;23.33;51.93;99376.53;10504146;28;20040;-72
2022/08/17 21:18:22;;;;;;;;;;;;;;;23.36;51.75;99373.56;10504356;28;20068;-71
2022/08/17 21:23:48;;;;;;;4.28;3.33;;;;;;;23.15;51.47;99392.53;10486754;28;19952;-72
2022/08/17 21:29:02;;;;;;;4.38;2.78;;;;;;;22.98;52.48;99402.19;10503232;28;20044;-73
2022/08/17 21:34:34;;;;;;;2.63;2.42;;;;;;;22.89;53.51;99405.69;10503531;28;20047;-72
2022/08/17 21:39:39;;;;;;;3.58;3.30;;;;;;;22.81;53.50;99413.59;10503321;28;20047;-72
2022/08/17 21:44:49;;;;;;;4.07;3.40;;;;;;;22.87;53.22;99415.69;10504545;28;20115;-72
2022/08/17 21:49:52;;;;;;;3.20;2.90;;;;;;;22.95;54.56;99417.69;10504122;28;20376;-72
2022/08/17 21:55:01;;;;;;;3.25;2.63;;;;;;;22.67;55.43;99420.22;10485968;28;20045;-72
2022/08/17 22:00:14;;;;;;;3.95;3.35;;;;;;;22.52;54.95;99414.41;10485060;28;20405;-73
2022/08/17 22:05:34;;;;;;;3.42;2.80;;;;;;;22.41;55.76;99426.13;10501212;28;20054;-72
2022/08/17 22:10:39;;;;;;;3.83;2.95;;;;;;;22.78;55.81;99427.28;10503206;28;20375;-72
2022/08/17 22:15:43;;;;;;;4.22;2.83;;;;;;;22.62;55.56;99423.34;10502604;28;20075;-72
2022/08/17 22:20:54;;;;;;;3.70;3.10;;;;;;;22.36;56.30;99412.31;10502653;28;20075;-72
2022/08/17 22:26:04;;;;;;;3.90;2.63;;;;;;;22.28;55.95;99419.34;10502714;28;20040;-72
2022/08/17 22:31:13;;;;;;;4.05;3.03;;;;;;;22.37;55.78;99413.16;10501804;28;20044;-72
2022/08/17 22:36:23;;;;;;;2.60;2.40;;;;;;;22.13;56.32;99414.38;10501209;28;20041;-72
2022/08/17 22:41:59;;;;;;;3.55;3.25;;;;;;;21.92;56.87;99413.59;10500822;28;20547;-71
2022/08/17 22:47:10;;;;;;;3.88;3.00;;;;;;;21.81;57.75;99422.53;10482628;28;20102;-72
2022/08/17 22:52:14;;;;;;;3.20;2.50;;;;;;;21.88;57.53;99439.75;10500114;28;20047;-73
2022/08/17 23:02:37;;;;;;;4.80;3.08;;;;;;;21.81;57.86;99433.25;10500575;28;20093;-73
2022/08/17 23:07:55;;;;;;;5.15;3.10;;;;;;;21.66;57.99;99429.25;10499915;28;20040;-71
2022/08/17 23:12:59;;;;;;;3.65;3.30;;;;;;;21.70;58.13;99430.69;10500218;28;20462;-73
2022/08/17 23:18:03;;;;;;;3.20;3.00;;;;;;;21.56;57.87;99421.19;10499858;28;20074;-72
2022/08/17 23:23:05;;;;;;;3.20;2.97;;;;;;;21.14;59.63;99418.53;10500361;28;20123;-72
2022/08/17 23:28:07;;;;;;;4.00;3.60;;;;;;;21.19;60.74;99423.47;10500808;28;20441;-72
2022/08/17 23:33:18;;;;;;;3.08;2.88;;;;;;;21.29;60.17;99421.69;10481552;28;20047;-72
2022/08/17 23:38:21;;;;;;;3.33;2.92;;;;;;;21.23;59.63;99424.91;10482210;28;20044;-72
2022/08/17 23:43:22;;;;;;;3.80;3.00;;;;;;;21.17;59.70;99422.78;10481979;28;20091;-72
2022/08/17 23:48:30;;;;;;;4.32;3.92;;;;;;;21.08;59.65;99428.91;10499527;28;20048;-71
2022/08/17 23:53:43;;;;;;;3.45;3.25;;;;;;;20.80;60.38;99425.84;10500987;28;20346;-71
2022/08/17 23:58:45;;;;;;;3.70;3.20;;;;;;;20.90;60.16;99425.97;10499591;28;20044;-72
